sensor_id;sensor_type;location;lat;lon;timestamp;temperature;humidity
60717;DHT22;46566;52.700;6.192;2023-05-10T00:01:05;13.20;99.90
60717;DHT22;46566;52.700;6.192;2023-05-10T00:03:31;13.10;99.90
60717;DHT22;46566;52.700;6.192;2023-05-10T00:05:56;13.20;99.90
60717;DHT22;46566;52.700;6.192;2023-05-10T00:08:22;13.10;99.90
60717;DHT22;46566;52.700;6.192;2023-05-10T00:10:51;13.20;99.90
60717;DHT22;46566;52.700;6.192;2023-05-10T00:13:17;13.10;99.90
60717;DHT22;46566;52.700;6.192;2023-05-10T00:15:43;13.10;99.90
60717;DHT22;46566;52.700;6.192;2023-05-10T00:18:08;13.20;99.90
60717;DHT22;46566;52.700;6.192;2023-05-10T00:20:34;13.10;99.90
60717;DHT22;46566;52.700;6.192;2023-05-10T00:23:00;13.10;99.90
60717;DHT22;46566;52.700;6.192;2023-05-10T00:25:25;13.10;99.90
60717;DHT22;46566;52.700;6.192;2023-05-10T00:27:51;13.10;99.90
60717;DHT22;46566;52.700;6.192;2023-05-10T00:30:17;13.10;99.90
60717;DHT22;46566;52.700;6.192;2023-05-10T00:32:43;13.10;99.90
60717;DHT22;46566;52.700;6.192;2023-05-10T00:35:09;13.10;99.90
60717;DHT22;46566;52.700;6.192;2023-05-10T00:37:35;13.10;99.90
60717;DHT22;46566;52.700;6.192;2023-05-10T00:40:01;13.10;99.90
60717;DHT22;46566;52.700;6.192;2023-05-10T00:44:54;13.10;99.90
60717;DHT22;46566;52.700;6.192;2023-05-10T00:47:20;13.10;99.90
60717;DHT22;46566;52.700;6.192;2023-05-10T00:49:46;13.00;99.90
60717;DHT22;46566;52.700;6.192;2023-05-10T00:52:12;13.10;99.90
60717;DHT22;46566;52.700;6.192;2023-05-10T00:54:39;13.00;99.90
60717;DHT22;46566;52.700;6.192;2023-05-10T00:57:05;13.00;99.90
60717;DHT22;46566;52.700;6.192;2023-05-10T00:59:30;13.00;99.90
60717;DHT22;46566;52.700;6.192;2023-05-10T01:01:57;13.00;99.90
60717;DHT22;46566;52.700;6.192;2023-05-10T01:04:23;13.00;99.90
60717;DHT22;46566;52.700;6.192;2023-05-10T01:06:52;13.00;99.90
60717;DHT22;46566;52.700;6.192;2023-05-10T01:09:19;13.00;99.90
60717;DHT22;46566;52.700;6.192;2023-05-10T01:11:48;13.00;99.90
60717;DHT22;46566;52.700;6.192;2023-05-10T01:14:15;12.90;99.90
60717;DHT22;46566;52.700;6.192;2023-05-10T01:16:44;13.00;99.90
60717;DHT22;46566;52.700;6.192;2023-05-10T01:21:49;12.90;99.90
60717;DHT22;46566;52.700;6.192;2023-05-10T01:30:01;12.90;99.90
60717;DHT22;46566;52.700;6.192;2023-05-10T01:33:09;12.90;99.90
60717;DHT22;46566;52.700;6.192;2023-05-10T01:41:32;12.80;99.90
60717;DHT22;46566;52.700;6.192;2023-05-10T01:44:26;12.80;99.90
60717;DHT22;46566;52.700;6.192;2023-05-10T01:47:04;12.80;99.90
60717;DHT22;46566;52.700;6.192;2023-05-10T01:49:36;12.80;99.90
60717;DHT22;46566;52.700;6.192;2023-05-10T01:52:12;12.80;99.90
60717;DHT22;46566;52.700;6.192;2023-05-10T01:54:44;12.80;99.90
60717;DHT22;46566;52.700;6.192;2023-05-10T01:57:16;12.80;99.90
60717;DHT22;46566;52.700;6.192;2023-05-10T01:59:45;12.80;99.90
60717;DHT22;46566;52.700;6.192;2023-05-10T02:02:15;12.80;99.90
60717;DHT22;46566;52.700;6.192;2023-05-10T02:04:42;12.70;99.90
60717;DHT22;46566;52.700;6.192;2023-05-10T02:07:08;12.80;99.90
60717;DHT22;46566;52.700;6.192;2023-05-10T02:09:36;12.70;99.90
60717;DHT22;46566;52.700;6.192;2023-05-10T02:12:04;12.70;99.90
60717;DHT22;46566;52.700;6.192;2023-05-10T02:14:35;12.70;99.90
60717;DHT22;46566;52.700;6.192;2023-05-10T02:17:03;12.70;99.90
60717;DHT22;46566;52.700;6.192;2023-05-10T02:19:30;12.70;99.90
60717;DHT22;46566;52.700;6.192;2023-05-10T02:21:57;12.70;99.90
60717;DHT22;46566;52.700;6.192;2023-05-10T02:24:24;12.70;99.90
60717;DHT22;46566;52.700;6.192;2023-05-10T02:26:51;12.70;99.90
60717;DHT22;46566;52.700;6.192;2023-05-10T02:29:19;12.70;99.90
60717;DHT22;46566;52.700;6.192;2023-05-10T02:31:47;12.70;99.90
60717;DHT22;46566;52.700;6.192;2023-05-10T02:34:13;12.70;99.90
60717;DHT22;46566;52.700;6.192;2023-05-10T02:36:40;12.70;99.90
60717;DHT22;46566;52.700;6.192;2023-05-10T02:39:06;12.70;99.90
60717;DHT22;46566;52.700;6.192;2023-05-10T02:41:36;12.70;99.90
60717;DHT22;46566;52.700;6.192;2023-05-10T02:44:02;12.70;99.90
60717;DHT22;46566;52.700;6.192;2023-05-10T02:46:29;12.70;99.90
60717;DHT22;46566;52.700;6.192;2023-05-10T02:48:55;12.70;99.90
60717;DHT22;46566;52.700;6.192;2023-05-10T02:51:24;12.70;99.90
60717;DHT22;46566;52.700;6.192;2023-05-10T02:53:53;12.70;99.90
60717;DHT22;46566;52.700;6.192;2023-05-10T02:56:42;12.70;99.90
60717;DHT22;46566;52.700;6.192;2023-05-10T02:59:12;12.70;99.90
60717;DHT22;46566;52.700;6.192;2023-05-10T03:01:38;12.70;99.90
60717;DHT22;46566;52.700;6.192;2023-05-10T03:04:05;12.70;99.90
60717;DHT22;46566;52.700;6.192;2023-05-10T03:06:31;12.70;99.90
60717;DHT22;46566;52.700;6.192;2023-05-10T03:08:57;12.70;99.90
60717;DHT22;46566;52.700;6.192;2023-05-10T03:11:39;12.70;99.90
60717;DHT22;46566;52.700;6.192;2023-05-10T03:17:17;12.70;99.90
60717;DHT22;46566;52.700;6.192;2023-05-10T03:19:57;12.70;99.90
60717;DHT22;46566;52.700;6.192;2023-05-10T03:22:34;12.70;99.90
60717;DHT22;46566;52.700;6.192;2023-05-10T03:25:05;12.70;99.90
60717;DHT22;46566;52.700;6.192;2023-05-10T03:27:32;12.70;99.90
60717;DHT22;46566;52.700;6.192;2023-05-10T03:29:59;12.70;99.90
60717;DHT22;46566;52.700;6.192;2023-05-10T03:32:29;12.70;99.90
60717;DHT22;46566;52.700;6.192;2023-05-10T03:34:55;12.70;99.90
60717;DHT22;46566;52.700;6.192;2023-05-10T03:37:23;12.70;99.90
60717;DHT22;46566;52.700;6.192;2023-05-10T03:39:49;12.70;99.90
60717;DHT22;46566;52.700;6.192;2023-05-10T03:42:15;12.70;99.90
60717;DHT22;46566;52.700;6.192;2023-05-10T03:44:43;12.70;99.90
60717;DHT22;46566;52.700;6.192;2023-05-10T03:47:09;12.70;99.90
60717;DHT22;46566;52.700;6.192;2023-05-10T03:49:35;12.70;99.90
60717;DHT22;46566;52.700;6.192;2023-05-10T03:52:01;12.60;99.90
60717;DHT22;46566;52.700;6.192;2023-05-10T03:54:27;12.60;99.90
60717;DHT22;46566;52.700;6.192;2023-05-10T03:56:53;12.60;99.90
60717;DHT22;46566;52.700;6.192;2023-05-10T03:59:19;12.60;99.90
60717;DHT22;46566;52.700;6.192;2023-05-10T04:01:45;12.60;99.90
60717;DHT22;46566;52.700;6.192;2023-05-10T04:04:11;12.60;99.90
60717;DHT22;46566;52.700;6.192;2023-05-10T04:06:38;12.60;99.90
60717;DHT22;46566;52.700;6.192;2023-05-10T04:09:04;12.60;99.90
60717;DHT22;46566;52.700;6.192;2023-05-10T04:11:30;12.60;99.90
60717;DHT22;46566;52.700;6.192;2023-05-10T04:13:55;12.60;99.90
60717;DHT22;46566;52.700;6.192;2023-05-10T04:16:22;12.60;99.90
60717;DHT22;46566;52.700;6.192;2023-05-10T04:18:47;12.60;99.90
60717;DHT22;46566;52.700;6.192;2023-05-10T04:21:14;12.60;99.90
60717;DHT22;46566;52.700;6.192;2023-05-10T04:23:40;12.60;99.90
60717;DHT22;46566;52.700;6.192;2023-05-10T04:26:06;12.60;99.90
60717;DHT22;46566;52.700;6.192;2023-05-10T04:28:32;12.60;99.90
60717;DHT22;46566;52.700;6.192;2023-05-10T04:31:02;12.60;99.90
60717;DHT22;46566;52.700;6.192;2023-05-10T04:33:28;12.60;99.90
60717;DHT22;46566;52.700;6.192;2023-05-10T04:35:54;12.60;99.90
60717;DHT22;46566;52.700;6.192;2023-05-10T04:38:19;12.60;99.90
60717;DHT22;46566;52.700;6.192;2023-05-10T04:40:45;12.60;99.90
60717;DHT22;46566;52.700;6.192;2023-05-10T04:43:10;12.60;99.90
60717;DHT22;46566;52.700;6.192;2023-05-10T04:45:37;12.60;99.90
60717;DHT22;46566;52.700;6.192;2023-05-10T04:48:02;12.60;99.90
60717;DHT22;46566;52.700;6.192;2023-05-10T04:50:28;12.60;99.90
60717;DHT22;46566;52.700;6.192;2023-05-10T04:52:54;12.60;99.90
60717;DHT22;46566;52.700;6.192;2023-05-10T04:55:19;12.60;99.90
60717;DHT22;46566;52.700;6.192;2023-05-10T04:57:45;12.70;99.90
60717;DHT22;46566;52.700;6.192;2023-05-10T05:00:11;12.70;99.90
60717;DHT22;46566;52.700;6.192;2023-05-10T05:02:37;12.70;99.90
60717;DHT22;46566;52.700;6.192;2023-05-10T05:05:03;12.70;99.90
60717;DHT22;46566;52.700;6.192;2023-05-10T05:07:29;12.70;99.90
60717;DHT22;46566;52.700;6.192;2023-05-10T05:09:56;12.70;99.90
60717;DHT22;46566;52.700;6.192;2023-05-10T05:12:21;12.70;99.90
60717;DHT22;46566;52.700;6.192;2023-05-10T05:14:47;12.70;99.90
60717;DHT22;46566;52.700;6.192;2023-05-10T05:17:13;12.70;99.90
60717;DHT22;46566;52.700;6.192;2023-05-10T05:19:38;12.70;99.90
60717;DHT22;46566;52.700;6.192;2023-05-10T05:22:06;12.70;99.90
60717;DHT22;46566;52.700;6.192;2023-05-10T05:24:36;12.70;99.90
60717;DHT22;46566;52.700;6.192;2023-05-10T05:27:04;12.70;99.90
60717;DHT22;46566;52.700;6.192;2023-05-10T05:29:31;12.70;99.90
60717;DHT22;46566;52.700;6.192;2023-05-10T05:31:57;12.70;99.90
60717;DHT22;46566;52.700;6.192;2023-05-10T05:34:22;12.70;99.90
60717;DHT22;46566;52.700;6.192;2023-05-10T05:36:48;12.70;99.90
60717;DHT22;46566;52.700;6.192;2023-05-10T05:39:14;12.70;99.90
60717;DHT22;46566;52.700;6.192;2023-05-10T05:41:39;12.70;99.90
60717;DHT22;46566;52.700;6.192;2023-05-10T05:44:05;12.70;99.90
60717;DHT22;46566;52.700;6.192;2023-05-10T05:46:31;12.70;99.90
60717;DHT22;46566;52.700;6.192;2023-05-10T05:48:56;12.70;99.90
60717;DHT22;46566;52.700;6.192;2023-05-10T05:51:22;12.80;99.90
60717;DHT22;46566;52.700;6.192;2023-05-10T05:53:48;12.80;99.90
60717;DHT22;46566;52.700;6.192;2023-05-10T05:56:13;12.80;99.90
60717;DHT22;46566;52.700;6.192;2023-05-10T05:58:39;12.80;99.90
60717;DHT22;46566;52.700;6.192;2023-05-10T06:01:05;12.80;99.90
60717;DHT22;46566;52.700;6.192;2023-05-10T06:03:31;12.80;99.90
60717;DHT22;46566;52.700;6.192;2023-05-10T06:05:57;12.80;99.90
60717;DHT22;46566;52.700;6.192;2023-05-10T06:08:23;12.80;99.90
60717;DHT22;46566;52.700;6.192;2023-05-10T06:10:49;12.90;99.90
60717;DHT22;46566;52.700;6.192;2023-05-10T06:13:15;12.90;99.90
60717;DHT22;46566;52.700;6.192;2023-05-10T06:15:40;12.80;99.90
60717;DHT22;46566;52.700;6.192;2023-05-10T06:18:06;12.90;99.90
60717;DHT22;46566;52.700;6.192;2023-05-10T06:20:32;12.90;99.90
60717;DHT22;46566;52.700;6.192;2023-05-10T06:22:58;12.90;99.90
60717;DHT22;46566;52.700;6.192;2023-05-10T06:25:24;13.00;99.90
60717;DHT22;46566;52.700;6.192;2023-05-10T06:27:49;13.00;99.90
60717;DHT22;46566;52.700;6.192;2023-05-10T06:30:16;13.00;99.90
60717;DHT22;46566;52.700;6.192;2023-05-10T06:32:41;13.10;99.90
60717;DHT22;46566;52.700;6.192;2023-05-10T06:35:09;13.20;99.90
60717;DHT22;46566;52.700;6.192;2023-05-10T06:37:35;13.20;99.90
60717;DHT22;46566;52.700;6.192;2023-05-10T06:40:00;13.30;99.90
60717;DHT22;46566;52.700;6.192;2023-05-10T06:42:27;13.20;99.90
60717;DHT22;46566;52.700;6.192;2023-05-10T06:44:53;13.20;99.90
60717;DHT22;46566;52.700;6.192;2023-05-10T06:47:18;13.20;99.90
60717;DHT22;46566;52.700;6.192;2023-05-10T06:49:44;13.20;99.90
60717;DHT22;46566;52.700;6.192;2023-05-10T06:52:10;13.20;99.90
60717;DHT22;46566;52.700;6.192;2023-05-10T06:54:35;13.30;99.90
60717;DHT22;46566;52.700;6.192;2023-05-10T06:57:01;13.30;99.90
60717;DHT22;46566;52.700;6.192;2023-05-10T06:59:28;13.30;99.90
60717;DHT22;46566;52.700;6.192;2023-05-10T07:01:54;13.30;99.90
60717;DHT22;46566;52.700;6.192;2023-05-10T07:04:20;13.30;99.90
60717;DHT22;46566;52.700;6.192;2023-05-10T07:06:45;13.30;99.90
60717;DHT22;46566;52.700;6.192;2023-05-10T07:09:11;13.30;99.90
60717;DHT22;46566;52.700;6.192;2023-05-10T07:11:38;13.30;99.90
60717;DHT22;46566;52.700;6.192;2023-05-10T07:14:04;13.30;99.90
60717;DHT22;46566;52.700;6.192;2023-05-10T07:16:30;13.30;99.90
60717;DHT22;46566;52.700;6.192;2023-05-10T07:18:56;13.40;99.90
60717;DHT22;46566;52.700;6.192;2023-05-10T07:21:21;13.40;99.90
60717;DHT22;46566;52.700;6.192;2023-05-10T07:23:49;13.40;99.90
60717;DHT22;46566;52.700;6.192;2023-05-10T07:26:15;13.40;99.90
60717;DHT22;46566;52.700;6.192;2023-05-10T07:28:41;13.50;99.90
60717;DHT22;46566;52.700;6.192;2023-05-10T07:33:33;13.60;99.90
60717;DHT22;46566;52.700;6.192;2023-05-10T07:35:59;13.70;99.90
60717;DHT22;46566;52.700;6.192;2023-05-10T07:38:25;13.80;99.90
60717;DHT22;46566;52.700;6.192;2023-05-10T07:40:51;13.90;99.90
60717;DHT22;46566;52.700;6.192;2023-05-10T07:43:16;13.90;99.90
60717;DHT22;46566;52.700;6.192;2023-05-10T07:45:42;13.90;99.90
60717;DHT22;46566;52.700;6.192;2023-05-10T07:48:08;13.90;99.90
60717;DHT22;46566;52.700;6.192;2023-05-10T07:50:34;14.00;99.90
60717;DHT22;46566;52.700;6.192;2023-05-10T07:52:59;14.00;99.90
60717;DHT22;46566;52.700;6.192;2023-05-10T07:55:25;14.00;99.90
60717;DHT22;46566;52.700;6.192;2023-05-10T07:57:51;14.00;99.90
60717;DHT22;46566;52.700;6.192;2023-05-10T08:00:18;14.00;99.90
60717;DHT22;46566;52.700;6.192;2023-05-10T08:02:45;14.00;99.90
60717;DHT22;46566;52.700;6.192;2023-05-10T08:05:10;14.10;99.90
60717;DHT22;46566;52.700;6.192;2023-05-10T08:07:36;14.10;99.90
60717;DHT22;46566;52.700;6.192;2023-05-10T08:10:02;14.10;99.90
60717;DHT22;46566;52.700;6.192;2023-05-10T08:14:54;14.20;99.90
60717;DHT22;46566;52.700;6.192;2023-05-10T08:17:20;14.30;99.90
60717;DHT22;46566;52.700;6.192;2023-05-10T08:19:46;14.30;99.90
60717;DHT22;46566;52.700;6.192;2023-05-10T08:22:12;14.30;99.90
60717;DHT22;46566;52.700;6.192;2023-05-10T08:24:37;14.30;99.90
60717;DHT22;46566;52.700;6.192;2023-05-10T08:32:00;14.40;99.90
60717;DHT22;46566;52.700;6.192;2023-05-10T08:34:26;14.60;99.90
60717;DHT22;46566;52.700;6.192;2023-05-10T08:36:52;14.70;99.90
60717;DHT22;46566;52.700;6.192;2023-05-10T08:39:18;14.80;99.90
60717;DHT22;46566;52.700;6.192;2023-05-10T08:41:45;14.90;99.90
60717;DHT22;46566;52.700;6.192;2023-05-10T08:44:12;15.00;99.90
60717;DHT22;46566;52.700;6.192;2023-05-10T08:46:41;15.10;99.90
60717;DHT22;46566;52.700;6.192;2023-05-10T08:51:40;15.30;99.90
60717;DHT22;46566;52.700;6.192;2023-05-10T08:54:09;15.40;99.90
60717;DHT22;46566;52.700;6.192;2023-05-10T08:56:36;15.40;99.90
60717;DHT22;46566;52.700;6.192;2023-05-10T08:59:01;15.50;99.90
60717;DHT22;46566;52.700;6.192;2023-05-10T09:01:28;15.50;99.90
60717;DHT22;46566;52.700;6.192;2023-05-10T09:03:58;15.70;99.90
60717;DHT22;46566;52.700;6.192;2023-05-10T09:06:24;15.70;99.90
60717;DHT22;46566;52.700;6.192;2023-05-10T09:08:50;15.70;99.90
60717;DHT22;46566;52.700;6.192;2023-05-10T09:11:16;15.70;99.90
60717;DHT22;46566;52.700;6.192;2023-05-10T09:13:42;15.70;99.90
60717;DHT22;46566;52.700;6.192;2023-05-10T09:16:09;15.70;99.90
60717;DHT22;46566;52.700;6.192;2023-05-10T09:18:35;15.70;99.90
60717;DHT22;46566;52.700;6.192;2023-05-10T09:21:00;15.60;99.90
60717;DHT22;46566;52.700;6.192;2023-05-10T09:23:26;15.60;99.90
60717;DHT22;46566;52.700;6.192;2023-05-10T09:26:07;15.60;99.90
60717;DHT22;46566;52.700;6.192;2023-05-10T09:28:34;15.50;99.90
60717;DHT22;46566;52.700;6.192;2023-05-10T09:34:03;15.40;99.90
60717;DHT22;46566;52.700;6.192;2023-05-10T09:36:29;15.40;99.90
60717;DHT22;46566;52.700;6.192;2023-05-10T09:38:54;15.40;99.90
60717;DHT22;46566;52.700;6.192;2023-05-10T09:41:45;15.50;99.90
60717;DHT22;46566;52.700;6.192;2023-05-10T09:44:16;15.50;99.90
60717;DHT22;46566;52.700;6.192;2023-05-10T09:46:43;15.40;99.90
60717;DHT22;46566;52.700;6.192;2023-05-10T09:49:33;15.40;99.90
60717;DHT22;46566;52.700;6.192;2023-05-10T09:52:07;15.40;99.90
60717;DHT22;46566;52.700;6.192;2023-05-10T09:54:33;15.40;99.90
60717;DHT22;46566;52.700;6.192;2023-05-10T09:57:19;15.50;99.90
60717;DHT22;46566;52.700;6.192;2023-05-10T10:05:30;15.60;99.90
60717;DHT22;46566;52.700;6.192;2023-05-10T10:07:57;15.60;99.90
60717;DHT22;46566;52.700;6.192;2023-05-10T10:10:27;15.70;99.90
60717;DHT22;46566;52.700;6.192;2023-05-10T10:13:17;15.70;99.90
60717;DHT22;46566;52.700;6.192;2023-05-10T10:15:43;15.80;99.90
60717;DHT22;46566;52.700;6.192;2023-05-10T10:18:13;15.80;99.90
60717;DHT22;46566;52.700;6.192;2023-05-10T10:23:29;15.70;99.90
60717;DHT22;46566;52.700;6.192;2023-05-10T10:25:54;15.60;99.90
60717;DHT22;46566;52.700;6.192;2023-05-10T10:37:15;15.70;99.90
60717;DHT22;46566;52.700;6.192;2023-05-10T10:39:41;15.70;99.90
60717;DHT22;46566;52.700;6.192;2023-05-10T10:57:12;15.60;99.90
60717;DHT22;46566;52.700;6.192;2023-05-10T10:59:42;15.60;99.90
60717;DHT22;46566;52.700;6.192;2023-05-10T11:02:44;15.60;99.90
60717;DHT22;46566;52.700;6.192;2023-05-10T11:16:23;15.30;99.90
60717;DHT22;46566;52.700;6.192;2023-05-10T11:19:03;15.20;99.90
60717;DHT22;46566;52.700;6.192;2023-05-10T11:24:31;15.10;99.90
60717;DHT22;46566;52.700;6.192;2023-05-10T11:26:58;15.10;99.90
60717;DHT22;46566;52.700;6.192;2023-05-10T11:29:52;15.10;99.90
60717;DHT22;46566;52.700;6.192;2023-05-10T11:35:30;15.10;99.90
60717;DHT22;46566;52.700;6.192;2023-05-10T11:38:21;15.10;99.90
60717;DHT22;46566;52.700;6.192;2023-05-10T11:40:47;15.20;99.90
60717;DHT22;46566;52.700;6.192;2023-05-10T11:43:16;15.20;99.90
60717;DHT22;46566;52.700;6.192;2023-05-10T11:48:33;15.40;99.90
60717;DHT22;46566;52.700;6.192;2023-05-10T11:51:01;15.40;99.90
60717;DHT22;46566;52.700;6.192;2023-05-10T11:53:29;15.50;99.90
60717;DHT22;46566;52.700;6.192;2023-05-10T11:56:20;15.60;99.90
60717;DHT22;46566;52.700;6.192;2023-05-10T11:58:56;15.70;99.90
60717;DHT22;46566;52.700;6.192;2023-05-10T12:01:23;15.70;99.90
60717;DHT22;46566;52.700;6.192;2023-05-10T12:03:50;15.80;99.90
60717;DHT22;46566;52.700;6.192;2023-05-10T12:06:16;15.80;99.90
60717;DHT22;46566;52.700;6.192;2023-05-10T12:26:03;16.00;99.90
60717;DHT22;46566;52.700;6.192;2023-05-10T12:37:46;15.60;99.90
60717;DHT22;46566;52.700;6.192;2023-05-10T12:40:12;15.60;99.90
60717;DHT22;46566;52.700;6.192;2023-05-10T12:45:42;15.60;99.90
60717;DHT22;46566;52.700;6.192;2023-05-10T12:51:56;15.60;99.90
60717;DHT22;46566;52.700;6.192;2023-05-10T12:54:22;15.70;99.90
60717;DHT22;46566;52.700;6.192;2023-05-10T12:56:48;15.70;99.90
60717;DHT22;46566;52.700;6.192;2023-05-10T12:59:13;15.70;99.90
60717;DHT22;46566;52.700;6.192;2023-05-10T13:04:56;15.70;99.90
60717;DHT22;46566;52.700;6.192;2023-05-10T13:10:18;15.60;99.90
60717;DHT22;46566;52.700;6.192;2023-05-10T13:12:44;15.50;99.90
60717;DHT22;46566;52.700;6.192;2023-05-10T13:18:19;15.40;99.90
60717;DHT22;46566;52.700;6.192;2023-05-10T13:20:45;15.30;99.90
60717;DHT22;46566;52.700;6.192;2023-05-10T13:25:56;15.30;99.90
60717;DHT22;46566;52.700;6.192;2023-05-10T13:28:28;15.30;99.90
60717;DHT22;46566;52.700;6.192;2023-05-10T13:30:54;15.30;99.90
60717;DHT22;46566;52.700;6.192;2023-05-10T13:34:05;15.30;99.90
60717;DHT22;46566;52.700;6.192;2023-05-10T13:39:27;15.20;99.90
60717;DHT22;46566;52.700;6.192;2023-05-10T13:41:56;15.20;99.90
60717;DHT22;46566;52.700;6.192;2023-05-10T13:44:21;15.20;99.90
60717;DHT22;46566;52.700;6.192;2023-05-10T13:47:12;15.30;99.90
60717;DHT22;46566;52.700;6.192;2023-05-10T13:49:38;15.30;99.90
60717;DHT22;46566;52.700;6.192;2023-05-10T13:52:04;15.30;99.90
60717;DHT22;46566;52.700;6.192;2023-05-10T13:57:32;15.40;99.90
60717;DHT22;46566;52.700;6.192;2023-05-10T13:59:59;15.50;99.90
60717;DHT22;46566;52.700;6.192;2023-05-10T14:11:20;15.80;99.90
60717;DHT22;46566;52.700;6.192;2023-05-10T14:16:55;15.90;99.90
60717;DHT22;46566;52.700;6.192;2023-05-10T14:22:31;16.00;99.90
60717;DHT22;46566;52.700;6.192;2023-05-10T14:24:56;16.10;99.90
60717;DHT22;46566;52.700;6.192;2023-05-10T14:30:13;16.20;99.90
60717;DHT22;46566;52.700;6.192;2023-05-10T14:32:39;16.20;99.90
60717;DHT22;46566;52.700;6.192;2023-05-10T14:37:53;16.30;99.90
60717;DHT22;46566;52.700;6.192;2023-05-10T14:40:19;16.30;99.90
60717;DHT22;46566;52.700;6.192;2023-05-10T14:42:46;16.30;99.90
60717;DHT22;46566;52.700;6.192;2023-05-10T14:45:12;16.30;99.90
60717;DHT22;46566;52.700;6.192;2023-05-10T14:48:03;16.40;99.90
60717;DHT22;46566;52.700;6.192;2023-05-10T14:56:03;16.40;99.90
60717;DHT22;46566;52.700;6.192;2023-05-10T14:58:29;16.40;99.90
60717;DHT22;46566;52.700;6.192;2023-05-10T15:00:55;16.50;99.90
60717;DHT22;46566;52.700;6.192;2023-05-10T15:06:23;16.50;99.90
60717;DHT22;46566;52.700;6.192;2023-05-10T15:08:50;16.60;99.90
60717;DHT22;46566;52.700;6.192;2023-05-10T15:23:30;16.60;99.90
60717;DHT22;46566;52.700;6.192;2023-05-10T15:26:13;16.60;99.90
60717;DHT22;46566;52.700;6.192;2023-05-10T15:28:39;16.60;99.90
60717;DHT22;46566;52.700;6.192;2023-05-10T15:31:05;16.60;99.90
60717;DHT22;46566;52.700;6.192;2023-05-10T15:33:30;16.70;99.90
60717;DHT22;46566;52.700;6.192;2023-05-10T15:35:56;16.60;99.90
60717;DHT22;46566;52.700;6.192;2023-05-10T15:38:47;16.70;99.90
60717;DHT22;46566;52.700;6.192;2023-05-10T15:41:13;16.60;99.90
60717;DHT22;46566;52.700;6.192;2023-05-10T15:46:41;16.60;99.90
60717;DHT22;46566;52.700;6.192;2023-05-10T15:49:07;16.60;99.90
60717;DHT22;46566;52.700;6.192;2023-05-10T15:51:33;16.50;99.90
60717;DHT22;46566;52.700;6.192;2023-05-10T15:54:24;16.50;99.90
60717;DHT22;46566;52.700;6.192;2023-05-10T15:56:50;16.50;99.90
60717;DHT22;46566;52.700;6.192;2023-05-10T16:02:17;16.50;99.90
60717;DHT22;46566;52.700;6.192;2023-05-10T16:04:43;16.50;99.90
60717;DHT22;46566;52.700;6.192;2023-05-10T16:07:09;16.40;99.90
60717;DHT22;46566;52.700;6.192;2023-05-10T16:09:35;16.40;99.90
60717;DHT22;46566;52.700;6.192;2023-05-10T16:12:25;16.40;99.90
60717;DHT22;46566;52.700;6.192;2023-05-10T16:14:51;16.30;99.90
60717;DHT22;46566;52.700;6.192;2023-05-10T16:17:17;16.30;99.90
60717;DHT22;46566;52.700;6.192;2023-05-10T16:19:44;16.30;99.90
60717;DHT22;46566;52.700;6.192;2023-05-10T16:22:36;16.30;99.90
60717;DHT22;46566;52.700;6.192;2023-05-10T16:25:02;16.30;99.90
60717;DHT22;46566;52.700;6.192;2023-05-10T16:27:28;16.30;99.90
60717;DHT22;46566;52.700;6.192;2023-05-10T16:29:54;16.30;99.90
60717;DHT22;46566;52.700;6.192;2023-05-10T16:32:45;16.20;99.90
60717;DHT22;46566;52.700;6.192;2023-05-10T16:35:11;16.20;99.90
60717;DHT22;46566;52.700;6.192;2023-05-10T16:37:37;16.10;99.90
60717;DHT22;46566;52.700;6.192;2023-05-10T16:40:03;16.10;99.90
60717;DHT22;46566;52.700;6.192;2023-05-10T16:42:55;16.10;99.90
60717;DHT22;46566;52.700;6.192;2023-05-10T16:45:21;16.00;99.90
60717;DHT22;46566;52.700;6.192;2023-05-10T16:47:47;16.00;99.90
60717;DHT22;46566;52.700;6.192;2023-05-10T16:50:12;16.00;99.90
60717;DHT22;46566;52.700;6.192;2023-05-10T16:53:04;16.00;99.90
60717;DHT22;46566;52.700;6.192;2023-05-10T16:55:31;16.00;99.90
60717;DHT22;46566;52.700;6.192;2023-05-10T16:57:56;15.90;99.90
60717;DHT22;46566;52.700;6.192;2023-05-10T17:00:25;15.90;99.90
60717;DHT22;46566;52.700;6.192;2023-05-10T17:03:17;15.80;99.90
60717;DHT22;46566;52.700;6.192;2023-05-10T17:05:42;15.80;99.90
60717;DHT22;46566;52.700;6.192;2023-05-10T17:08:08;15.80;99.90
60717;DHT22;46566;52.700;6.192;2023-05-10T17:16:40;15.80;99.90
60717;DHT22;46566;52.700;6.192;2023-05-10T17:19:07;15.80;99.90
60717;DHT22;46566;52.700;6.192;2023-05-10T17:21:33;15.90;99.90
60717;DHT22;46566;52.700;6.192;2023-05-10T17:23:58;15.90;99.90
60717;DHT22;46566;52.700;6.192;2023-05-10T17:29:15;15.90;99.90
60717;DHT22;46566;52.700;6.192;2023-05-10T17:31:41;15.90;99.90
60717;DHT22;46566;52.700;6.192;2023-05-10T17:34:07;15.90;99.90
60717;DHT22;46566;52.700;6.192;2023-05-10T17:36:58;15.90;99.90
60717;DHT22;46566;52.700;6.192;2023-05-10T17:39:23;15.80;99.90
60717;DHT22;46566;52.700;6.192;2023-05-10T17:41:49;15.90;99.90
60717;DHT22;46566;52.700;6.192;2023-05-10T17:44:15;15.80;99.90
60717;DHT22;46566;52.700;6.192;2023-05-10T17:47:05;15.80;99.90
60717;DHT22;46566;52.700;6.192;2023-05-10T17:49:31;15.80;99.90
60717;DHT22;46566;52.700;6.192;2023-05-10T17:51:57;15.80;99.90
60717;DHT22;46566;52.700;6.192;2023-05-10T17:54:24;15.80;99.90
60717;DHT22;46566;52.700;6.192;2023-05-10T17:57:15;15.80;99.90
60717;DHT22;46566;52.700;6.192;2023-05-10T17:59:40;15.70;99.90
60717;DHT22;46566;52.700;6.192;2023-05-10T18:02:06;15.70;99.90
60717;DHT22;46566;52.700;6.192;2023-05-10T18:04:31;15.70;99.90
60717;DHT22;46566;52.700;6.192;2023-05-10T18:09:46;15.60;99.90
60717;DHT22;46566;52.700;6.192;2023-05-10T18:12:12;15.60;99.90
60717;DHT22;46566;52.700;6.192;2023-05-10T18:14:38;15.60;99.90
60717;DHT22;46566;52.700;6.192;2023-05-10T18:17:29;15.60;99.90
60717;DHT22;46566;52.700;6.192;2023-05-10T18:19:55;15.60;99.90
60717;DHT22;46566;52.700;6.192;2023-05-10T18:22:21;15.60;99.90
60717;DHT22;46566;52.700;6.192;2023-05-10T18:24:47;15.60;99.90
60717;DHT22;46566;52.700;6.192;2023-05-10T18:27:34;15.60;99.90
60717;DHT22;46566;52.700;6.192;2023-05-10T18:30:00;15.50;99.90
60717;DHT22;46566;52.700;6.192;2023-05-10T18:32:26;15.50;99.90
60717;DHT22;46566;52.700;6.192;2023-05-10T18:34:52;15.50;99.90
60717;DHT22;46566;52.700;6.192;2023-05-10T18:37:18;15.50;99.90
60717;DHT22;46566;52.700;6.192;2023-05-10T18:40:28;15.50;99.90
60717;DHT22;46566;52.700;6.192;2023-05-10T18:42:55;15.40;99.90
60717;DHT22;46566;52.700;6.192;2023-05-10T18:45:36;15.40;99.90
60717;DHT22;46566;52.700;6.192;2023-05-10T18:48:03;15.40;99.90
60717;DHT22;46566;52.700;6.192;2023-05-10T18:50:29;15.40;99.90
60717;DHT22;46566;52.700;6.192;2023-05-10T18:52:55;15.40;99.90
60717;DHT22;46566;52.700;6.192;2023-05-10T18:55:46;15.40;99.90
60717;DHT22;46566;52.700;6.192;2023-05-10T18:58:11;15.40;99.90